createdAt,value
2022-11-05T00:00:58.623Z,950.01
2022-11-05T00:01:58.709Z,950.00
2022-11-05T00:02:58.659Z,949.96
2022-11-05T00:03:58.712Z,949.97
2022-11-05T00:04:58.584Z,950.01
2022-11-05T00:05:58.560Z,949.94
2022-11-05T00:06:58.539Z,950.00
2022-11-05T00:07:58.533Z,950.14
2022-11-05T00:08:58.536Z,949.99
2022-11-05T00:09:58.499Z,950.03
2022-11-05T00:10:58.514Z,950.07
2022-11-05T00:11:58.482Z,950.09
2022-11-05T00:12:58.462Z,950.08
2022-11-05T00:13:58.465Z,950.08
2022-11-05T00:14:58.471Z,950.05
2022-11-05T00:15:58.424Z,950.07
2022-11-05T00:16:58.403Z,950.09
2022-11-05T00:17:58.397Z,950.07
2022-11-05T00:18:58.388Z,950.09
2022-11-05T00:19:58.401Z,950.13
2022-11-05T00:20:58.354Z,950.04
2022-11-05T00:21:58.343Z,950.10
2022-11-05T00:22:58.333Z,950.14
2022-11-05T00:23:58.320Z,950.03
2022-11-05T00:24:58.331Z,950.12
2022-11-05T00:25:58.301Z,950.14
2022-11-05T00:26:58.275Z,950.07
2022-11-05T00:27:58.299Z,950.08
2022-11-05T00:28:58.276Z,950.11
2022-11-05T00:29:58.264Z,950.11
2022-11-05T00:30:58.264Z,950.10
2022-11-05T00:31:58.264Z,950.02
2022-11-05T00:32:58.193Z,950.15
2022-11-05T00:33:58.189Z,950.06
2022-11-05T00:34:58.193Z,950.07
2022-11-05T00:35:58.173Z,950.11
2022-11-05T00:36:58.138Z,950.15
2022-11-05T00:37:58.163Z,950.12
2022-11-05T00:38:58.123Z,950.09
2022-11-05T00:39:58.108Z,950.04
2022-11-05T00:40:58.088Z,950.09
2022-11-05T00:41:58.072Z,950.14
2022-11-05T00:42:58.090Z,950.21
2022-11-05T00:43:58.060Z,950.25
2022-11-05T00:44:58.039Z,950.22
2022-11-05T00:45:58.050Z,950.28
2022-11-05T00:46:59.943Z,950.23
2022-11-05T00:47:58.001Z,950.30
2022-11-05T00:48:57.990Z,950.29
2022-11-05T00:49:58.000Z,950.26
2022-11-05T00:50:57.988Z,950.24
2022-11-05T00:51:57.945Z,950.27
2022-11-05T00:52:58.149Z,950.31
2022-11-05T00:53:57.931Z,950.23
2022-11-05T00:54:57.901Z,950.24
2022-11-05T00:55:57.926Z,950.26
2022-11-05T00:57:03.444Z,950.26
2022-11-05T00:57:57.911Z,950.34
2022-11-05T00:58:57.853Z,950.32
2022-11-05T00:59:57.837Z,950.36
2022-11-05T01:00:57.859Z,950.34
2022-11-05T01:01:57.962Z,950.36
2022-11-05T01:02:57.850Z,950.36
2022-11-05T01:03:57.791Z,950.36
2022-11-05T01:04:57.765Z,950.34
2022-11-05T01:05:57.785Z,950.35
2022-11-05T01:06:57.744Z,950.37
2022-11-05T01:07:57.734Z,950.39
2022-11-05T01:08:57.727Z,950.33
2022-11-05T01:09:57.702Z,950.34
2022-11-05T01:10:57.712Z,950.36
2022-11-05T01:11:57.691Z,950.29
2022-11-05T01:12:57.661Z,950.30
2022-11-05T01:13:57.690Z,950.34
2022-11-05T01:14:57.641Z,950.26
2022-11-05T01:15:57.622Z,950.25
2022-11-05T01:16:57.627Z,950.26
2022-11-05T01:17:57.630Z,950.28
2022-11-05T01:18:57.584Z,950.26
2022-11-05T01:19:57.579Z,950.23
2022-11-05T01:20:57.581Z,950.28
2022-11-05T01:21:57.551Z,950.30
2022-11-05T01:22:57.533Z,950.29
2022-11-05T01:23:57.518Z,950.32
2022-11-05T01:24:57.505Z,950.30
2022-11-05T01:25:57.524Z,950.30
2022-11-05T01:26:57.523Z,950.24
2022-11-05T01:27:57.457Z,950.25
2022-11-05T01:28:57.506Z,950.25
2022-11-05T01:29:57.439Z,950.26
2022-11-05T01:30:57.449Z,950.26
2022-11-05T01:31:57.439Z,950.25
2022-11-05T01:32:57.396Z,950.24
2022-11-05T01:33:57.392Z,950.21
2022-11-05T01:34:57.380Z,950.27
2022-11-05T01:35:57.517Z,950.25
2022-11-05T01:36:57.370Z,950.21
2022-11-05T01:37:57.361Z,950.20
2022-11-05T01:38:57.328Z,950.19
2022-11-05T01:39:57.305Z,950.18
2022-11-05T01:40:57.292Z,950.18
2022-11-05T01:41:57.311Z,950.20
2022-11-05T01:42:57.267Z,950.23
2022-11-05T01:43:57.259Z,950.26
2022-11-05T01:44:57.234Z,950.28
2022-11-05T01:45:57.260Z,950.23
2022-11-05T01:46:57.218Z,950.29
2022-11-05T01:47:57.223Z,950.27
2022-11-05T01:49:02.772Z,950.34
2022-11-05T01:49:57.180Z,950.31
2022-11-05T01:50:57.168Z,950.36
2022-11-05T01:51:57.145Z,950.36
2022-11-05T01:52:57.126Z,950.35
2022-11-05T01:53:57.182Z,950.42
2022-11-05T01:54:57.101Z,950.42
2022-11-05T01:55:57.097Z,950.42
2022-11-05T01:56:57.102Z,950.42
2022-11-05T01:57:57.072Z,950.45
2022-11-05T01:58:57.068Z,950.41
2022-11-05T01:59:57.059Z,950.44
2022-11-05T02:00:57.028Z,950.50
2022-11-05T02:01:57.126Z,950.52
2022-11-05T02:02:57.063Z,950.52
2022-11-05T02:03:57.020Z,950.53
2022-11-05T02:04:56.978Z,950.56
2022-11-05T02:05:56.961Z,950.54
2022-11-05T02:06:56.954Z,950.54
2022-11-05T02:07:56.958Z,950.61
2022-11-05T02:08:56.952Z,950.57
2022-11-05T02:09:56.933Z,950.59
2022-11-05T02:10:56.892Z,950.53
2022-11-05T02:11:56.875Z,950.52
2022-11-05T02:12:56.857Z,950.49
2022-11-05T02:13:56.855Z,950.49
2022-11-05T02:14:56.870Z,950.50
2022-11-05T02:15:56.844Z,950.50
2022-11-05T02:16:56.813Z,950.49
2022-11-05T02:17:56.825Z,950.50
2022-11-05T02:18:56.787Z,950.52
2022-11-05T02:19:56.773Z,950.45
2022-11-05T02:20:56.759Z,950.50
2022-11-05T02:21:56.740Z,950.52
2022-11-05T02:22:56.758Z,950.53
2022-11-05T02:23:56.724Z,950.52
2022-11-05T02:24:56.698Z,950.53
2022-11-05T02:25:56.724Z,950.53
2022-11-05T02:26:56.726Z,950.44
2022-11-05T02:27:56.692Z,950.46
2022-11-05T02:28:56.651Z,950.44
2022-11-05T02:29:56.648Z,950.46
2022-11-05T02:30:56.649Z,950.45
2022-11-05T02:31:56.608Z,950.45
2022-11-05T02:32:56.622Z,950.52
2022-11-05T02:33:56.615Z,950.50
2022-11-05T02:34:56.573Z,950.53
2022-11-05T02:35:56.559Z,950.55
2022-11-05T02:36:56.535Z,950.51
2022-11-05T02:37:56.568Z,950.48
2022-11-05T02:38:56.512Z,950.51
2022-11-05T02:39:56.502Z,950.48
2022-11-05T02:40:56.495Z,950.49
2022-11-05T02:42:00.525Z,950.55
2022-11-05T02:42:56.478Z,950.59
2022-11-05T02:43:56.480Z,950.58
2022-11-05T02:44:56.438Z,950.61
2022-11-05T02:45:56.427Z,950.61
2022-11-05T02:46:56.411Z,950.66
2022-11-05T02:47:56.417Z,950.68
2022-11-05T02:48:56.386Z,950.70
2022-11-05T02:49:56.375Z,950.66
2022-11-05T02:50:56.359Z,950.69
2022-11-05T02:51:56.374Z,950.70
2022-11-05T02:52:56.334Z,950.73
2022-11-05T02:53:56.333Z,950.74
2022-11-05T02:54:56.328Z,950.74
2022-11-05T02:55:56.303Z,950.68
2022-11-05T02:56:56.277Z,950.78
2022-11-05T02:57:56.266Z,950.78
2022-11-05T02:58:56.252Z,950.82
2022-11-05T02:59:56.268Z,950.88
2022-11-05T03:00:56.221Z,950.89
2022-11-05T03:01:56.456Z,950.89
2022-11-05T03:02:56.213Z,950.93
2022-11-05T03:03:56.215Z,950.96
2022-11-05T03:04:56.168Z,950.96
2022-11-05T03:05:56.169Z,951.01
2022-11-05T03:06:56.147Z,951.04
2022-11-05T03:07:56.172Z,950.95
2022-11-05T03:08:56.117Z,950.99
2022-11-05T03:09:56.110Z,950.97
2022-11-05T03:10:56.127Z,951.00
2022-11-05T03:11:56.070Z,951.02
2022-11-05T03:12:56.071Z,951.08
2022-11-05T03:13:56.050Z,951.08
2022-11-05T03:14:56.070Z,951.09
2022-11-05T03:15:56.026Z,951.10
2022-11-05T03:16:56.021Z,951.10
2022-11-05T03:17:55.994Z,951.05
2022-11-05T03:18:55.990Z,951.03
2022-11-05T03:19:55.986Z,951.07
2022-11-05T03:20:55.963Z,951.01
2022-11-05T03:21:55.953Z,951.00
2022-11-05T03:22:55.930Z,951.01
2022-11-05T03:23:55.936Z,951.05
2022-11-05T03:24:55.912Z,951.08
2022-11-05T03:25:55.919Z,951.09
2022-11-05T03:26:55.880Z,951.12
2022-11-05T03:27:55.860Z,951.14
2022-11-05T03:28:55.852Z,951.15
2022-11-05T03:29:55.830Z,951.20
2022-11-05T03:30:55.843Z,951.22
2022-11-05T03:31:55.808Z,951.19
2022-11-05T03:32:55.790Z,951.22
2022-11-05T03:33:55.788Z,951.23
2022-11-05T03:34:55.827Z,951.28
2022-11-05T03:35:55.753Z,951.29
2022-11-05T03:36:55.750Z,951.28
2022-11-05T03:37:55.755Z,951.33
2022-11-05T03:38:55.720Z,951.32
2022-11-05T03:39:55.703Z,951.33
2022-11-05T03:40:55.695Z,951.39
2022-11-05T03:41:55.718Z,951.37
2022-11-05T03:42:55.671Z,951.38
2022-11-05T03:43:55.652Z,951.37
2022-11-05T03:44:55.637Z,951.40
2022-11-05T03:45:55.672Z,951.40
2022-11-05T03:46:55.609Z,951.37
2022-11-05T03:47:55.602Z,951.41
2022-11-05T03:48:55.720Z,951.41
2022-11-05T03:49:55.565Z,951.39
2022-11-05T03:50:55.566Z,951.41
2022-11-05T03:51:55.575Z,951.42
2022-11-05T03:52:55.528Z,951.42
2022-11-05T03:53:55.513Z,951.41
2022-11-05T03:54:55.512Z,951.39
2022-11-05T03:55:55.500Z,951.39
2022-11-05T03:56:55.503Z,951.36
2022-11-05T03:57:55.459Z,951.37
2022-11-05T03:58:58.887Z,951.35
2022-11-05T03:59:55.449Z,951.37
2022-11-05T04:00:55.418Z,951.38
2022-11-05T04:01:55.499Z,951.41
2022-11-05T04:02:55.579Z,951.41
2022-11-05T04:03:55.376Z,951.41
2022-11-05T04:04:55.370Z,951.43
2022-11-05T04:05:55.356Z,951.41
2022-11-05T04:06:55.368Z,951.44
2022-11-05T04:07:55.330Z,951.42
2022-11-05T04:08:55.326Z,951.43
2022-11-05T04:09:55.306Z,951.46
2022-11-05T04:10:55.284Z,951.46
2022-11-05T04:11:55.297Z,951.45
2022-11-05T04:12:55.286Z,951.48
2022-11-05T04:13:55.254Z,951.46
2022-11-05T04:14:55.258Z,951.42
2022-11-05T04:15:55.225Z,951.43
2022-11-05T04:16:55.205Z,951.39
2022-11-05T04:17:55.193Z,951.39
2022-11-05T04:18:55.219Z,951.38
2022-11-05T04:19:55.163Z,951.41
2022-11-05T04:20:55.152Z,951.43
2022-11-05T04:21:55.138Z,951.44
2022-11-05T04:22:55.139Z,951.44
2022-11-05T04:23:55.137Z,951.45
2022-11-05T04:24:55.130Z,951.41
2022-11-05T04:25:55.088Z,951.45
2022-11-05T04:26:55.106Z,951.43
2022-11-05T04:27:55.061Z,951.46
2022-11-05T04:28:55.052Z,951.48
2022-11-05T04:29:55.068Z,951.53
2022-11-05T04:30:55.019Z,951.54
2022-11-05T04:31:54.996Z,951.53
2022-11-05T04:32:55.004Z,951.55
2022-11-05T04:33:54.973Z,951.58
2022-11-05T04:34:54.993Z,951.60
2022-11-05T04:35:54.953Z,951.59
2022-11-05T04:36:54.942Z,951.60
2022-11-05T04:37:54.958Z,951.63
2022-11-05T04:38:54.906Z,951.61
2022-11-05T04:39:54.900Z,951.66
2022-11-05T04:40:54.933Z,951.68
2022-11-05T04:41:54.882Z,951.68
2022-11-05T04:42:54.864Z,951.66
2022-11-05T04:43:54.870Z,951.68
2022-11-05T04:44:54.838Z,951.72
2022-11-05T04:45:54.813Z,951.74
2022-11-05T04:46:54.813Z,951.77
2022-11-05T04:47:54.832Z,951.81
2022-11-05T04:48:54.777Z,951.82
2022-11-05T04:49:54.795Z,951.80
2022-11-05T04:50:54.753Z,951.79
2022-11-05T04:51:54.746Z,951.77
2022-11-05T04:52:54.730Z,951.79
2022-11-05T04:53:54.720Z,951.75
2022-11-05T04:54:54.732Z,951.72
2022-11-05T04:55:54.677Z,951.73
2022-11-05T04:56:54.680Z,951.75
2022-11-05T04:57:54.650Z,951.79
2022-11-05T04:58:54.653Z,951.77
2022-11-05T04:59:54.666Z,951.79
2022-11-05T05:00:54.662Z,951.80
2022-11-05T05:01:54.691Z,951.81
2022-11-05T05:02:54.606Z,951.80
2022-11-05T05:03:54.570Z,951.73
2022-11-05T05:04:54.572Z,951.74
2022-11-05T05:05:58.205Z,951.77
2022-11-05T05:06:54.547Z,951.76
2022-11-05T05:07:54.529Z,951.72
2022-11-05T05:08:54.514Z,951.79
2022-11-05T05:09:54.496Z,951.73
2022-11-05T05:10:54.510Z,951.74
2022-11-05T05:11:54.474Z,951.75
2022-11-05T05:12:54.465Z,951.77
2022-11-05T05:13:54.442Z,951.75
2022-11-05T05:14:54.419Z,951.75
2022-11-05T05:15:54.454Z,951.77
2022-11-05T05:16:54.412Z,951.77
2022-11-05T05:17:54.411Z,951.80
2022-11-05T05:18:54.382Z,951.78
2022-11-05T05:19:54.347Z,951.84
2022-11-05T05:20:54.350Z,951.79
2022-11-05T05:21:54.377Z,951.79
2022-11-05T05:22:54.321Z,951.85
2022-11-05T05:23:54.308Z,951.84
2022-11-05T05:24:54.309Z,951.84
2022-11-05T05:25:54.303Z,951.83
2022-11-05T05:26:54.310Z,951.86
2022-11-05T05:27:54.265Z,951.84
2022-11-05T05:28:54.247Z,951.88
2022-11-05T05:29:54.251Z,951.83
2022-11-05T05:30:58.617Z,951.86
2022-11-05T05:31:54.204Z,951.83
2022-11-05T05:32:54.213Z,951.82
2022-11-05T05:33:54.213Z,951.87
2022-11-05T05:34:54.167Z,951.82
2022-11-05T05:35:54.159Z,951.87
2022-11-05T05:36:54.164Z,951.88
2022-11-05T05:37:54.119Z,951.85
2022-11-05T05:38:54.173Z,951.88
2022-11-05T05:39:54.112Z,951.89
2022-11-05T05:40:54.090Z,951.93
2022-11-05T05:41:54.065Z,951.91
2022-11-05T05:42:54.054Z,951.90
2022-11-05T05:43:54.067Z,951.90
2022-11-05T05:44:54.030Z,951.94
2022-11-05T05:45:54.019Z,951.95
2022-11-05T05:46:53.998Z,951.94
2022-11-05T05:47:54.013Z,951.95
2022-11-05T05:48:54.011Z,951.97
2022-11-05T05:49:53.968Z,951.97
2022-11-05T05:50:53.963Z,952.00
2022-11-05T05:51:53.926Z,952.04
2022-11-05T05:52:53.947Z,952.05
2022-11-05T05:53:53.944Z,952.08
2022-11-05T05:54:53.899Z,952.06
2022-11-05T05:55:53.885Z,952.07
2022-11-05T05:56:53.865Z,952.11
2022-11-05T05:57:53.882Z,952.15
2022-11-05T05:58:53.846Z,952.12
2022-11-05T05:59:53.824Z,952.14
2022-11-05T06:00:53.815Z,952.18
2022-11-05T06:01:53.968Z,952.15
2022-11-05T06:02:53.853Z,952.19
2022-11-05T06:03:53.848Z,952.16
2022-11-05T06:04:53.759Z,952.22
2022-11-05T06:05:53.750Z,952.22
2022-11-05T06:06:53.765Z,952.20
2022-11-05T06:07:53.717Z,952.22
2022-11-05T06:08:53.712Z,952.21
2022-11-05T06:09:53.684Z,952.28
2022-11-05T06:10:53.808Z,952.29
2022-11-05T06:11:53.684Z,952.31
2022-11-05T06:12:53.654Z,952.36
2022-11-05T06:13:53.637Z,952.36
2022-11-05T06:14:53.641Z,952.40
2022-11-05T06:15:53.613Z,952.39
2022-11-05T06:16:53.630Z,952.40
2022-11-05T06:17:53.589Z,952.40
2022-11-05T06:18:53.590Z,952.35
2022-11-05T06:19:53.557Z,952.42
2022-11-05T06:20:53.565Z,952.39
2022-11-05T06:21:53.563Z,952.39
2022-11-05T06:22:53.516Z,952.43
2022-11-05T06:23:53.529Z,952.53
2022-11-05T06:24:53.498Z,952.55
2022-11-05T06:25:53.477Z,952.54
2022-11-05T06:26:53.494Z,952.56
2022-11-05T06:27:53.469Z,952.59
2022-11-05T06:28:53.442Z,952.60
2022-11-05T06:29:53.472Z,952.62
2022-11-05T06:30:53.423Z,952.65
2022-11-05T06:31:53.399Z,952.67
2022-11-05T06:32:53.406Z,952.71
2022-11-05T06:33:53.398Z,952.65
2022-11-05T06:34:53.359Z,952.69
2022-11-05T06:35:53.340Z,952.68
2022-11-05T06:36:53.358Z,952.69
2022-11-05T06:37:53.325Z,952.69
2022-11-05T06:38:53.301Z,952.65
2022-11-05T06:39:53.279Z,952.72
2022-11-05T06:40:53.288Z,952.73
2022-11-05T06:42:53.304Z,952.76
2022-11-05T06:43:53.241Z,952.78
2022-11-05T06:44:53.253Z,952.79
2022-11-05T06:45:53.223Z,952.80
2022-11-05T06:46:53.189Z,952.79
2022-11-05T06:47:53.185Z,952.84
2022-11-05T06:48:53.178Z,952.78
2022-11-05T06:49:53.169Z,952.81
2022-11-05T06:50:53.174Z,952.84
2022-11-05T06:51:53.140Z,952.86
2022-11-05T06:52:53.176Z,952.84
2022-11-05T06:53:53.106Z,952.91
2022-11-05T06:54:53.091Z,952.91
2022-11-05T06:55:53.103Z,952.95
2022-11-05T06:56:53.064Z,952.99
2022-11-05T06:57:53.113Z,952.95
2022-11-05T06:58:53.040Z,953.00
2022-11-05T06:59:58.723Z,953.01
2022-11-05T07:00:53.117Z,952.99
2022-11-05T07:01:53.107Z,953.03
2022-11-05T07:02:53.007Z,953.07
2022-11-05T07:03:52.963Z,953.10
2022-11-05T07:04:53.041Z,953.15
2022-11-05T07:05:52.961Z,953.16
2022-11-05T07:06:52.925Z,953.20
2022-11-05T07:07:52.918Z,953.20
2022-11-05T07:08:52.901Z,953.21
2022-11-05T07:09:53.025Z,953.25
2022-11-05T07:10:52.915Z,953.25
2022-11-05T07:11:52.871Z,953.25
2022-11-05T07:12:52.849Z,953.26
2022-11-05T07:13:52.832Z,953.32
2022-11-05T07:14:52.833Z,953.34
2022-11-05T07:15:52.846Z,953.31
2022-11-05T07:16:52.800Z,953.30
2022-11-05T07:17:52.781Z,953.32
2022-11-05T07:18:52.799Z,953.36
2022-11-05T07:19:52.768Z,953.36
2022-11-05T07:20:52.766Z,953.40
2022-11-05T07:21:52.735Z,953.37
2022-11-05T07:22:52.730Z,953.41
2022-11-05T07:23:52.733Z,953.43
2022-11-05T07:24:52.689Z,953.45
2022-11-05T07:25:52.678Z,953.49
2022-11-05T07:26:52.680Z,953.51
2022-11-05T07:27:52.646Z,953.51
2022-11-05T07:28:52.663Z,953.53
2022-11-05T07:29:52.625Z,953.61
2022-11-05T07:30:52.628Z,953.56
2022-11-05T07:31:52.625Z,953.61
2022-11-05T07:32:52.589Z,953.64
2022-11-05T07:33:52.597Z,953.68
2022-11-05T07:34:52.562Z,953.66
2022-11-05T07:35:52.549Z,953.68
2022-11-05T07:36:52.547Z,953.68
2022-11-05T07:37:52.515Z,953.72
2022-11-05T07:38:57.395Z,953.72
2022-11-05T07:39:52.529Z,953.72
2022-11-05T07:40:52.473Z,953.68
2022-11-05T07:41:52.475Z,953.67
2022-11-05T07:42:52.475Z,953.65
2022-11-05T07:43:52.431Z,953.64
2022-11-05T07:44:52.414Z,953.63
2022-11-05T07:45:52.408Z,953.68
2022-11-05T07:46:52.508Z,953.64
2022-11-05T07:47:52.386Z,953.64
2022-11-05T07:48:52.381Z,953.68
2022-11-05T07:49:52.355Z,953.67
2022-11-05T07:50:52.338Z,953.67
2022-11-05T07:51:52.363Z,953.71
2022-11-05T07:52:52.310Z,953.72
2022-11-05T07:53:52.330Z,953.73
2022-11-05T07:54:52.283Z,953.74
2022-11-05T07:55:52.277Z,953.76
2022-11-05T07:56:52.274Z,953.77
2022-11-05T07:57:52.270Z,953.72
2022-11-05T07:58:52.255Z,953.71
2022-11-05T07:59:52.245Z,953.69
2022-11-05T08:00:52.361Z,953.77
2022-11-05T08:01:52.359Z,953.72
2022-11-05T08:02:52.424Z,953.77
2022-11-05T08:03:52.182Z,953.76
2022-11-05T08:04:52.186Z,953.74
2022-11-05T08:05:52.163Z,953.73
2022-11-05T08:06:52.131Z,953.74
2022-11-05T08:07:52.114Z,953.73
2022-11-05T08:08:52.107Z,953.74
2022-11-05T08:09:52.120Z,953.77
2022-11-05T08:10:52.070Z,953.77
2022-11-05T08:11:53.099Z,953.79
2022-11-05T08:12:52.040Z,953.78
2022-11-05T08:13:52.037Z,953.75
2022-11-05T08:14:52.042Z,953.79
2022-11-05T08:15:52.009Z,953.76
2022-11-05T08:16:51.982Z,953.78
2022-11-05T08:17:51.985Z,953.77
2022-11-05T08:18:51.964Z,953.76
2022-11-05T08:19:51.972Z,953.78
2022-11-05T08:20:51.937Z,953.80
2022-11-05T08:21:51.948Z,953.79
2022-11-05T08:22:51.910Z,953.84
2022-11-05T08:23:51.904Z,953.84
2022-11-05T08:24:51.882Z,953.84
2022-11-05T08:25:51.878Z,953.88
2022-11-05T08:26:51.894Z,953.86
2022-11-05T08:27:51.843Z,953.84
2022-11-05T08:28:51.828Z,953.85
2022-11-05T08:29:51.826Z,953.86
2022-11-05T08:30:51.798Z,953.85
2022-11-05T08:31:51.848Z,953.89
2022-11-05T08:32:51.784Z,953.89
2022-11-05T08:33:51.762Z,953.86
2022-11-05T08:34:51.747Z,953.88
2022-11-05T08:35:51.747Z,953.84
2022-11-05T08:36:51.743Z,953.90
2022-11-05T08:37:51.716Z,953.90
2022-11-05T08:38:51.695Z,953.90
2022-11-05T08:39:51.691Z,953.87
2022-11-05T08:40:51.673Z,953.90
2022-11-05T08:41:51.681Z,953.91
2022-11-05T08:42:51.646Z,953.91
2022-11-05T08:43:51.658Z,953.91
2022-11-05T08:44:51.620Z,953.94
2022-11-05T08:45:51.608Z,953.90
2022-11-05T08:46:51.627Z,953.90
2022-11-05T08:47:51.638Z,953.91
2022-11-05T08:48:51.561Z,953.95
2022-11-05T08:49:51.551Z,953.92
2022-11-05T08:50:51.562Z,953.91
2022-11-05T08:51:51.529Z,953.93
2022-11-05T08:52:51.512Z,953.93
2022-11-05T08:53:51.510Z,953.97
2022-11-05T08:54:51.479Z,953.88
2022-11-05T08:55:51.497Z,953.95
2022-11-05T08:56:51.459Z,953.93
2022-11-05T08:57:51.450Z,953.93
2022-11-05T08:58:51.463Z,953.93
2022-11-05T08:59:51.412Z,953.98
2022-11-05T09:00:51.509Z,953.95
2022-11-05T09:01:51.595Z,953.98
2022-11-05T09:02:51.384Z,954.00
2022-11-05T09:03:51.399Z,953.99
2022-11-05T09:04:51.362Z,954.02
2022-11-05T09:05:51.336Z,954.00
2022-11-05T09:06:51.345Z,954.03
2022-11-05T09:07:53.163Z,954.05
2022-11-05T09:08:51.326Z,954.01
2022-11-05T09:09:51.290Z,954.01
2022-11-05T09:10:51.314Z,954.08
2022-11-05T09:12:11.186Z,954.06
2022-11-05T09:12:51.247Z,954.04
2022-11-05T09:13:51.227Z,954.10
2022-11-05T09:14:51.214Z,954.10
2022-11-05T09:15:51.236Z,954.13
2022-11-05T09:16:51.298Z,954.13
2022-11-05T09:17:51.177Z,954.14
2022-11-05T09:18:51.197Z,954.10
2022-11-05T09:19:51.148Z,954.05
2022-11-05T09:20:51.156Z,954.03
2022-11-05T09:21:51.143Z,954.04
2022-11-05T09:22:51.111Z,954.06
2022-11-05T09:23:51.187Z,954.03
2022-11-05T09:24:51.080Z,954.11
2022-11-05T09:25:51.107Z,954.15
2022-11-05T09:26:51.060Z,954.16
2022-11-05T09:27:51.037Z,954.12
2022-11-05T09:28:51.064Z,954.14
2022-11-05T09:29:51.016Z,954.14
2022-11-05T09:30:50.999Z,954.17
2022-11-05T09:31:51.021Z,954.20
2022-11-05T09:32:50.968Z,954.20
2022-11-05T09:33:50.999Z,954.19
2022-11-05T09:34:50.937Z,954.19
2022-11-05T09:35:50.942Z,954.17
2022-11-05T09:36:50.927Z,954.19
2022-11-05T09:37:50.938Z,954.19
2022-11-05T09:38:50.905Z,954.13
2022-11-05T09:39:50.891Z,954.15
2022-11-05T09:40:50.871Z,954.15
2022-11-05T09:41:50.856Z,954.16
2022-11-05T09:42:50.833Z,954.16
2022-11-05T09:43:50.919Z,954.19
2022-11-05T09:44:50.814Z,954.20
2022-11-05T09:45:50.802Z,954.18
2022-11-05T09:46:50.819Z,954.17
2022-11-05T09:47:50.794Z,954.20
2022-11-05T09:48:50.789Z,954.15
2022-11-05T09:49:50.743Z,954.17
2022-11-05T09:50:50.736Z,954.15
2022-11-05T09:51:50.755Z,954.16
2022-11-05T09:52:50.714Z,954.16
2022-11-05T09:53:50.700Z,954.18
2022-11-05T09:54:50.717Z,954.19
2022-11-05T09:55:50.669Z,954.20
2022-11-05T09:56:50.649Z,954.21
2022-11-05T09:57:50.674Z,954.22
2022-11-05T09:58:50.638Z,954.24
2022-11-05T09:59:50.653Z,954.24
2022-11-05T10:00:50.664Z,954.21
2022-11-05T10:01:50.741Z,954.26
2022-11-05T10:02:50.567Z,954.21
2022-11-05T10:03:50.598Z,954.20
2022-11-05T10:04:50.625Z,954.24
2022-11-05T10:05:50.590Z,954.24
2022-11-05T10:06:50.525Z,954.28
2022-11-05T10:07:50.510Z,954.29
2022-11-05T10:08:50.514Z,954.29
2022-11-05T10:11:17.805Z,954.33
2022-11-05T10:11:22.706Z,954.38
2022-11-05T10:12:22.684Z,954.40
2022-11-05T10:13:22.702Z,954.40
2022-11-05T10:14:22.656Z,954.41
2022-11-05T10:15:22.639Z,954.37
2022-11-05T10:16:22.644Z,954.36
2022-11-05T10:17:22.640Z,954.41
2022-11-05T10:18:22.610Z,954.39
2022-11-05T10:19:22.597Z,954.38
2022-11-05T10:20:22.603Z,954.40
2022-11-05T10:21:44.327Z,954.40
2022-11-05T10:22:22.552Z,954.40
2022-11-05T10:23:22.539Z,954.43
2022-11-05T10:24:22.565Z,954.41
2022-11-05T10:25:22.512Z,954.40
2022-11-05T10:26:22.530Z,954.43
2022-11-05T10:27:22.485Z,954.40
2022-11-05T10:28:22.501Z,954.44
2022-11-05T10:29:22.456Z,954.46
2022-11-05T10:30:22.443Z,954.45
2022-11-05T10:31:22.435Z,954.48
2022-11-05T10:32:22.405Z,954.47
2022-11-05T10:33:22.419Z,954.47
2022-11-05T10:34:22.416Z,954.48
2022-11-05T10:35:22.396Z,954.45
2022-11-05T10:36:22.366Z,954.47
2022-11-05T10:37:22.360Z,954.46
2022-11-05T10:38:22.342Z,954.45
2022-11-05T10:39:22.349Z,954.46
2022-11-05T10:40:22.311Z,954.47
2022-11-05T10:41:22.297Z,954.46
2022-11-05T10:42:22.306Z,954.47
2022-11-05T10:43:22.275Z,954.43
2022-11-05T10:44:22.271Z,954.46
2022-11-05T10:45:22.259Z,954.43
2022-11-05T10:46:22.229Z,954.45
2022-11-05T10:47:22.255Z,954.48
2022-11-05T10:48:22.207Z,954.44
2022-11-05T10:49:22.194Z,954.42
2022-11-05T10:50:22.173Z,954.46
2022-11-05T10:51:22.191Z,954.46
2022-11-05T10:52:22.146Z,954.46
2022-11-05T10:53:22.161Z,954.45
2022-11-05T10:54:22.141Z,954.40
2022-11-05T10:55:22.105Z,954.42
2022-11-05T10:56:22.091Z,954.39
2022-11-05T10:57:22.092Z,954.35
2022-11-05T10:58:22.064Z,954.40
2022-11-05T10:59:22.091Z,954.39
2022-11-05T11:00:22.095Z,954.41
2022-11-05T11:01:22.094Z,954.40
2022-11-05T11:02:22.118Z,954.38
2022-11-05T11:03:22.010Z,954.42
2022-11-05T11:04:21.979Z,954.43
2022-11-05T11:05:21.999Z,954.44
2022-11-05T11:06:21.956Z,954.44
2022-11-05T11:07:21.948Z,954.43
2022-11-05T11:08:21.949Z,954.42
2022-11-05T11:09:21.921Z,954.47
2022-11-05T11:10:21.912Z,954.44
2022-11-05T11:11:21.894Z,954.50
2022-11-05T11:12:21.877Z,954.45
2022-11-05T11:13:21.890Z,954.43
2022-11-05T11:14:21.848Z,954.42
2022-11-05T11:15:21.835Z,954.42
2022-11-05T11:16:21.825Z,954.38
2022-11-05T11:17:21.811Z,954.42
2022-11-05T11:18:21.828Z,954.47
2022-11-05T11:19:21.795Z,954.44
2022-11-05T11:20:21.768Z,954.50
2022-11-05T11:21:21.758Z,954.45
2022-11-05T11:22:21.766Z,954.52
2022-11-05T11:23:21.740Z,954.49
2022-11-05T11:24:21.749Z,954.43
2022-11-05T11:25:21.690Z,954.38
2022-11-05T11:26:21.731Z,954.41
2022-11-05T11:27:21.702Z,954.41
2022-11-05T11:28:21.671Z,954.41
2022-11-05T11:29:21.674Z,954.39
2022-11-05T11:30:21.645Z,954.41
2022-11-05T11:31:21.621Z,954.40
2022-11-05T11:32:21.613Z,954.40
2022-11-05T11:33:21.599Z,954.44
2022-11-05T11:34:21.625Z,954.38
2022-11-05T11:35:21.571Z,954.43
2022-11-05T11:36:21.559Z,954.43
2022-11-05T11:37:21.532Z,954.41
2022-11-05T11:38:21.557Z,954.43
2022-11-05T11:39:21.536Z,954.49
2022-11-05T11:40:21.532Z,954.49
2022-11-05T11:41:21.480Z,954.50
2022-11-05T11:42:21.488Z,954.53
2022-11-05T11:43:21.481Z,954.52
2022-11-05T11:44:21.485Z,954.54
2022-11-05T11:45:21.453Z,954.52
2022-11-05T11:46:21.431Z,954.52
2022-11-05T11:47:21.435Z,954.50
2022-11-05T11:48:21.393Z,954.54
2022-11-05T11:49:21.381Z,954.51
2022-11-05T11:50:21.365Z,954.56
2022-11-05T11:51:21.351Z,954.55
2022-11-05T11:52:21.367Z,954.52
2022-11-05T11:53:21.327Z,954.54
2022-11-05T11:54:21.314Z,954.54
2022-11-05T11:55:21.313Z,954.57
2022-11-05T11:56:21.325Z,954.59
2022-11-05T11:57:21.262Z,954.56
2022-11-05T11:58:21.262Z,954.60
2022-11-05T11:59:30.656Z,954.61
2022-11-05T12:00:21.241Z,954.60
2022-11-05T12:01:21.307Z,954.56
2022-11-05T12:02:21.382Z,954.62
2022-11-05T12:03:21.540Z,954.61
2022-11-05T12:04:21.172Z,954.63
2022-11-05T12:05:21.183Z,954.63
2022-11-05T12:06:21.186Z,954.67
2022-11-05T12:07:21.126Z,954.66
2022-11-05T12:08:21.122Z,954.66
2022-11-05T12:09:21.110Z,954.68
2022-11-05T12:10:21.099Z,954.70
2022-11-05T12:11:21.110Z,954.70
2022-11-05T12:12:21.064Z,954.67
2022-11-05T12:13:21.070Z,954.67
2022-11-05T12:14:21.040Z,954.69
2022-11-05T12:15:21.017Z,954.70
2022-11-05T12:16:21.061Z,954.73
2022-11-05T12:17:21.023Z,954.72
2022-11-05T12:18:20.982Z,954.71
2022-11-05T12:19:20.967Z,954.74
2022-11-05T12:20:20.981Z,954.69
2022-11-05T12:21:34.816Z,954.75
2022-11-05T12:22:20.997Z,954.73
2022-11-05T12:23:20.950Z,954.76
2022-11-05T12:24:20.903Z,954.76
2022-11-05T12:25:20.896Z,954.79
2022-11-05T12:26:20.878Z,954.78
2022-11-05T12:27:20.854Z,954.80
2022-11-05T12:28:20.885Z,954.81
2022-11-05T12:29:20.835Z,954.81
2022-11-05T12:30:20.850Z,954.77